BAW101 EGBB-EGLC
Flight info
| Callsign | BAW101 |
|---|---|
| Flight time | 0h 56m |
| Altitude | 21000 |
| Route | DCT DTY M605 SILVA SILVA1C |
| Aircraft | A319/M-V/N |
Departure
| Time | 2026-04-29 02:28 |
|---|---|
| Airport | Birmingham Airport (EGBB) |
Arrival
| Time | 2026-04-29 03:25 |
|---|---|
| Airport | London City Airport (EGLC) |
| Time | Latitude | Longitude | Altitude | Speed | Heading |
|---|---|---|---|---|---|
| 2026-04-29 02:17 | 52.45096 | -1.73577 | 337 ft | 0 kts | 146° |
| 2026-04-29 02:18 | 52.45097 | -1.73578 | 337 ft | 1 kts | 146° |
| 2026-04-29 02:19 | 52.45109 | -1.73592 | 336 ft | 2 kts | 146° |
| 2026-04-29 02:19 | 52.45122 | -1.73605 | 335 ft | 2 kts | 146° |
| 2026-04-29 02:19 | 52.45134 | -1.73617 | 334 ft | 2 kts | 178° |
| 2026-04-29 02:19 | 52.45148 | -1.73611 | 335 ft | 1 kts | 223° |
| 2026-04-29 02:20 | 52.45153 | -1.73602 | 335 ft | 1 kts | 242° |
| 2026-04-29 02:20 | 52.45155 | -1.73597 | 336 ft | 0 kts | 235° |
| 2026-04-29 02:22 | 52.45152 | -1.73602 | 335 ft | 0 kts | 235° |
| 2026-04-29 02:23 | 52.45151 | -1.73606 | 335 ft | 2 kts | 235° |
| 2026-04-29 02:23 | 52.45124 | -1.73670 | 331 ft | 10 kts | 235° |
| 2026-04-29 02:23 | 52.45058 | -1.73777 | 328 ft | 14 kts | 230° |
| 2026-04-29 02:24 | 52.45015 | -1.73852 | 327 ft | 6 kts | 184° |
| 2026-04-29 02:24 | 52.44975 | -1.73821 | 329 ft | 6 kts | 144° |
| 2026-04-29 02:24 | 52.44942 | -1.73785 | 330 ft | 5 kts | 146° |
| 2026-04-29 02:25 | 52.44853 | -1.73695 | 334 ft | 9 kts | 163° |
| 2026-04-29 02:25 | 52.44791 | -1.73705 | 335 ft | 9 kts | 198° |
| 2026-04-29 02:25 | 52.44733 | -1.73752 | 335 ft | 5 kts | 231° |
| 2026-04-29 02:25 | 52.44724 | -1.73772 | 335 ft | 0 kts | 233° |
| 2026-04-29 02:26 | 52.44721 | -1.73780 | 335 ft | 2 kts | 234° |
| 2026-04-29 02:26 | 52.44706 | -1.73816 | 334 ft | 5 kts | 235° |
| 2026-04-29 02:26 | 52.44679 | -1.73879 | 334 ft | 7 kts | 236° |
| 2026-04-29 02:27 | 52.44652 | -1.73951 | 335 ft | 7 kts | 250° |
| 2026-04-29 02:27 | 52.44666 | -1.74006 | 335 ft | 6 kts | 328° |
| 2026-04-29 02:27 | 52.44706 | -1.74049 | 335 ft | 7 kts | 326° |
| 2026-04-29 02:27 | 52.44754 | -1.74100 | 335 ft | 9 kts | 326° |
| 2026-04-29 02:28 | 52.44870 | -1.74228 | 335 ft | 49 kts | 326° |
| 2026-04-29 02:28 | 52.45376 | -1.74788 | 328 ft | 123 kts | 325° |
| 2026-04-29 02:28 | 52.46220 | -1.75756 | 586 ft | 158 kts | 328° |
| 2026-04-29 02:28 | 52.47108 | -1.76784 | 1312 ft | 159 kts | 333° |
| 2026-04-29 02:29 | 52.48009 | -1.77826 | 2044 ft | 162 kts | 337° |
| 2026-04-29 02:29 | 52.48947 | -1.78906 | 2617 ft | 174 kts | 336° |
| 2026-04-29 02:29 | 52.49982 | -1.80094 | 3131 ft | 191 kts | 333° |
| 2026-04-29 02:29 | 52.50894 | -1.81903 | 3624 ft | 223 kts | 296° |
| 2026-04-29 02:30 | 52.51094 | -1.84533 | 4104 ft | 247 kts | 258° |
| 2026-04-29 02:30 | 52.50566 | -1.87239 | 4742 ft | 260 kts | 244° |
| 2026-04-29 02:30 | 52.49778 | -1.90042 | 5366 ft | 278 kts | 241° |
| 2026-04-29 02:30 | 52.48896 | -1.92953 | 5989 ft | 295 kts | 238° |
| 2026-04-29 02:31 | 52.47645 | -1.95555 | 6853 ft | 293 kts | 213° |
| 2026-04-29 02:31 | 52.45864 | -1.96929 | 7863 ft | 279 kts | 184° |
| 2026-04-29 02:31 | 52.44008 | -1.96831 | 8769 ft | 270 kts | 158° |
| 2026-04-29 02:31 | 52.42415 | -1.95389 | 9629 ft | 264 kts | 133° |
| 2026-04-29 02:32 | 52.41113 | -1.93254 | 10458 ft | 269 kts | 129° |
| 2026-04-29 02:32 | 52.39798 | -1.91025 | 11125 ft | 281 kts | 130° |
| 2026-04-29 02:32 | 52.38405 | -1.88671 | 11595 ft | 299 kts | 130° |
| 2026-04-29 02:32 | 52.36892 | -1.86129 | 12015 ft | 318 kts | 130° |
| 2026-04-29 02:33 | 52.35319 | -1.83500 | 12390 ft | 336 kts | 130° |
| 2026-04-29 02:33 | 52.33643 | -1.80712 | 12753 ft | 353 kts | 131° |
| 2026-04-29 02:33 | 52.31897 | -1.77819 | 13392 ft | 359 kts | 131° |
| 2026-04-29 02:33 | 52.30136 | -1.74911 | 14178 ft | 362 kts | 130° |
| 2026-04-29 02:34 | 52.28387 | -1.72021 | 14872 ft | 365 kts | 130° |
| 2026-04-29 02:34 | 52.26579 | -1.69038 | 15587 ft | 369 kts | 130° |
| 2026-04-29 02:34 | 52.24773 | -1.66063 | 16260 ft | 372 kts | 130° |
| 2026-04-29 02:34 | 52.22985 | -1.63113 | 16906 ft | 374 kts | 130° |
| 2026-04-29 02:35 | 52.21143 | -1.60080 | 17523 ft | 377 kts | 130° |
| 2026-04-29 02:35 | 52.19299 | -1.57045 | 18144 ft | 380 kts | 130° |
| 2026-04-29 02:35 | 52.17419 | -1.53956 | 18746 ft | 382 kts | 130° |
| 2026-04-29 02:35 | 52.15544 | -1.50883 | 19316 ft | 384 kts | 129° |
| 2026-04-29 02:36 | 52.13650 | -1.47778 | 19858 ft | 387 kts | 129° |
| 2026-04-29 02:36 | 52.11768 | -1.44694 | 20404 ft | 389 kts | 129° |
| 2026-04-29 02:36 | 52.09843 | -1.41545 | 20907 ft | 392 kts | 129° |
| 2026-04-29 02:36 | 52.07915 | -1.38398 | 21238 ft | 394 kts | 129° |
| 2026-04-29 02:37 | 52.05984 | -1.35249 | 21294 ft | 393 kts | 129° |
| 2026-04-29 02:37 | 52.04066 | -1.32118 | 21301 ft | 393 kts | 129° |
| 2026-04-29 02:37 | 52.02258 | -1.29137 | 21310 ft | 393 kts | 129° |
| 2026-04-29 02:37 | 52.00317 | -1.25940 | 21299 ft | 392 kts | 129° |
| 2026-04-29 02:38 | 51.98401 | -1.22794 | 21299 ft | 393 kts | 129° |
| 2026-04-29 02:38 | 51.96475 | -1.19644 | 21306 ft | 392 kts | 130° |
| 2026-04-29 02:38 | 51.94567 | -1.16525 | 21301 ft | 392 kts | 129° |
| 2026-04-29 02:38 | 51.92629 | -1.13359 | 21306 ft | 393 kts | 129° |
| 2026-04-29 02:39 | 51.90700 | -1.10205 | 21297 ft | 393 kts | 129° |
| 2026-04-29 02:39 | 51.88809 | -1.07033 | 21302 ft | 390 kts | 125° |
| 2026-04-29 02:39 | 51.87377 | -1.03366 | 21302 ft | 383 kts | 111° |
| 2026-04-29 02:39 | 51.86617 | -0.99291 | 21297 ft | 379 kts | 97° |
| 2026-04-29 02:40 | 51.86534 | -0.95068 | 21286 ft | 378 kts | 84° |
| 2026-04-29 02:40 | 51.87124 | -0.90931 | 21289 ft | 378 kts | 71° |
| 2026-04-29 02:40 | 51.88063 | -0.86955 | 21292 ft | 379 kts | 70° |
| 2026-04-29 02:40 | 51.89028 | -0.82989 | 21297 ft | 379 kts | 70° |
| 2026-04-29 02:41 | 51.89999 | -0.79015 | 21294 ft | 379 kts | 70° |
| 2026-04-29 02:41 | 51.90969 | -0.75052 | 21289 ft | 379 kts | 70° |
| 2026-04-29 02:41 | 51.91936 | -0.71084 | 21293 ft | 378 kts | 70° |
| 2026-04-29 02:41 | 51.92897 | -0.67136 | 21297 ft | 379 kts | 70° |
| 2026-04-29 02:42 | 51.93858 | -0.63183 | 21296 ft | 378 kts | 70° |
| 2026-04-29 02:42 | 51.94824 | -0.59199 | 21299 ft | 379 kts | 70° |
| 2026-04-29 02:42 | 51.95794 | -0.55192 | 21305 ft | 379 kts | 70° |
| 2026-04-29 02:42 | 51.96752 | -0.51229 | 21298 ft | 380 kts | 70° |
| 2026-04-29 02:43 | 51.97717 | -0.47221 | 21296 ft | 380 kts | 70° |
| 2026-04-29 02:43 | 51.98530 | -0.43275 | 21297 ft | 365 kts | 75° |
| 2026-04-29 02:43 | 51.99068 | -0.39342 | 21297 ft | 345 kts | 80° |
| 2026-04-29 02:43 | 51.99348 | -0.35596 | 21298 ft | 326 kts | 85° |
| 2026-04-29 02:44 | 51.99414 | -0.31902 | 21298 ft | 331 kts | 89° |
| 2026-04-29 02:44 | 51.99385 | -0.28176 | 21307 ft | 333 kts | 90° |
| 2026-04-29 02:44 | 51.99346 | -0.24389 | 21304 ft | 333 kts | 90° |
| 2026-04-29 02:44 | 51.99305 | -0.20652 | 21298 ft | 334 kts | 90° |
| 2026-04-29 02:45 | 51.99260 | -0.16866 | 21296 ft | 335 kts | 90° |
| 2026-04-29 02:45 | 51.99215 | -0.13089 | 21301 ft | 334 kts | 90° |
| 2026-04-29 02:45 | 51.99165 | -0.09284 | 21303 ft | 335 kts | 90° |
| 2026-04-29 02:45 | 51.99116 | -0.05545 | 21299 ft | 335 kts | 90° |
| 2026-04-29 02:46 | 51.99065 | -0.01751 | 21300 ft | 334 kts | 90° |
| 2026-04-29 02:46 | 51.98986 | 0.01989 | 21298 ft | 335 kts | 93° |
| 2026-04-29 02:46 | 51.98615 | 0.05759 | 21300 ft | 336 kts | 101° |
| 2026-04-29 02:46 | 51.97910 | 0.09375 | 21299 ft | 339 kts | 108° |
| 2026-04-29 02:47 | 51.96932 | 0.12863 | 21305 ft | 340 kts | 112° |
| 2026-04-29 02:47 | 51.95891 | 0.16351 | 21179 ft | 341 kts | 112° |
| 2026-04-29 02:47 | 51.94875 | 0.19728 | 20931 ft | 339 kts | 112° |
| 2026-04-29 02:47 | 51.93841 | 0.23160 | 20675 ft | 339 kts | 112° |
| 2026-04-29 02:48 | 51.92808 | 0.26583 | 20417 ft | 338 kts | 112° |
| 2026-04-29 02:48 | 51.91782 | 0.29981 | 20169 ft | 337 kts | 112° |
| 2026-04-29 02:48 | 51.90748 | 0.33404 | 19918 ft | 337 kts | 112° |
| 2026-04-29 02:48 | 51.89727 | 0.36781 | 19668 ft | 336 kts | 112° |
| 2026-04-29 02:49 | 51.88707 | 0.40154 | 19422 ft | 335 kts | 112° |
| 2026-04-29 02:49 | 51.87676 | 0.43556 | 19183 ft | 335 kts | 112° |
| 2026-04-29 02:49 | 51.86662 | 0.46896 | 18961 ft | 334 kts | 112° |
| 2026-04-29 02:49 | 51.85637 | 0.50269 | 18722 ft | 333 kts | 112° |
| 2026-04-29 02:50 | 51.84614 | 0.53624 | 18382 ft | 332 kts | 113° |
| 2026-04-29 02:50 | 51.83596 | 0.56955 | 18208 ft | 331 kts | 113° |
| 2026-04-29 02:50 | 51.82570 | 0.60311 | 18185 ft | 333 kts | 112° |
| 2026-04-29 02:50 | 51.81582 | 0.63733 | 17976 ft | 333 kts | 106° |
| 2026-04-29 02:51 | 51.81258 | 0.67376 | 17558 ft | 325 kts | 86° |
| 2026-04-29 02:51 | 51.81508 | 0.70949 | 17194 ft | 316 kts | 83° |
| 2026-04-29 02:51 | 51.81779 | 0.74386 | 16762 ft | 306 kts | 83° |
| 2026-04-29 02:51 | 51.82045 | 0.77775 | 16378 ft | 295 kts | 83° |
| 2026-04-29 02:52 | 51.82293 | 0.80978 | 15991 ft | 285 kts | 83° |
| 2026-04-29 02:52 | 51.82534 | 0.84117 | 15699 ft | 276 kts | 83° |
| 2026-04-29 02:52 | 51.82766 | 0.87137 | 15434 ft | 270 kts | 83° |
| 2026-04-29 02:52 | 51.82995 | 0.90140 | 15193 ft | 264 kts | 83° |
| 2026-04-29 02:53 | 51.83215 | 0.93061 | 14928 ft | 260 kts | 83° |
| 2026-04-29 02:53 | 51.83428 | 0.95907 | 14650 ft | 256 kts | 83° |
| 2026-04-29 02:53 | 51.83641 | 0.98739 | 14385 ft | 252 kts | 83° |
| 2026-04-29 02:53 | 51.83850 | 1.01538 | 14005 ft | 253 kts | 83° |
| 2026-04-29 02:54 | 51.84058 | 1.04331 | 13722 ft | 249 kts | 83° |
| 2026-04-29 02:54 | 51.84265 | 1.07125 | 13376 ft | 249 kts | 83° |
| 2026-04-29 02:54 | 51.84470 | 1.09896 | 13020 ft | 249 kts | 83° |
| 2026-04-29 02:54 | 51.84664 | 1.12658 | 12704 ft | 246 kts | 86° |
| 2026-04-29 02:55 | 51.84440 | 1.15389 | 12390 ft | 246 kts | 108° |
| 2026-04-29 02:55 | 51.83621 | 1.17817 | 12115 ft | 245 kts | 119° |
| 2026-04-29 02:55 | 51.82688 | 1.20120 | 11834 ft | 242 kts | 120° |
| 2026-04-29 02:55 | 51.81771 | 1.22377 | 11562 ft | 238 kts | 120° |
| 2026-04-29 02:56 | 51.80877 | 1.24580 | 11288 ft | 236 kts | 120° |
| 2026-04-29 02:56 | 51.79978 | 1.26802 | 11009 ft | 233 kts | 119° |
| 2026-04-29 02:56 | 51.79106 | 1.28958 | 10765 ft | 229 kts | 119° |
| 2026-04-29 02:56 | 51.78237 | 1.31106 | 10564 ft | 224 kts | 119° |
| 2026-04-29 02:57 | 51.77387 | 1.33208 | 10289 ft | 222 kts | 119° |
| 2026-04-29 02:57 | 51.76547 | 1.35283 | 10008 ft | 221 kts | 119° |
| 2026-04-29 02:57 | 51.75713 | 1.37342 | 9757 ft | 219 kts | 119° |
| 2026-04-29 02:57 | 51.74872 | 1.39410 | 9500 ft | 219 kts | 121° |
| 2026-04-29 02:58 | 51.73753 | 1.41068 | 9284 ft | 225 kts | 150° |
| 2026-04-29 02:58 | 51.72188 | 1.41493 | 9267 ft | 239 kts | 182° |
| 2026-04-29 02:58 | 51.70575 | 1.40612 | 9278 ft | 248 kts | 198° |
| 2026-04-29 02:58 | 51.69004 | 1.39451 | 9181 ft | 249 kts | 199° |
| 2026-04-29 02:59 | 51.67419 | 1.38272 | 9228 ft | 249 kts | 198° |
| 2026-04-29 02:59 | 51.65838 | 1.37115 | 9245 ft | 249 kts | 198° |
| 2026-04-29 02:59 | 51.64266 | 1.35977 | 9252 ft | 249 kts | 198° |
| 2026-04-29 02:59 | 51.62679 | 1.34836 | 9251 ft | 248 kts | 198° |
| 2026-04-29 03:00 | 51.61098 | 1.33703 | 9248 ft | 248 kts | 198° |
| 2026-04-29 03:00 | 51.59512 | 1.32631 | 9246 ft | 245 kts | 189° |
| 2026-04-29 03:00 | 51.57886 | 1.32456 | 9253 ft | 232 kts | 163° |
| 2026-04-29 03:00 | 51.56305 | 1.33076 | 9255 ft | 231 kts | 158° |
| 2026-04-29 03:01 | 51.54754 | 1.33789 | 9254 ft | 231 kts | 158° |
| 2026-04-29 03:01 | 51.53204 | 1.34494 | 9256 ft | 231 kts | 158° |
| 2026-04-29 03:01 | 51.51654 | 1.35181 | 9251 ft | 232 kts | 158° |
| 2026-04-29 03:01 | 51.50040 | 1.35678 | 9251 ft | 237 kts | 169° |
| 2026-04-29 03:02 | 51.48389 | 1.35676 | 9252 ft | 240 kts | 176° |
| 2026-04-29 03:02 | 51.46700 | 1.35496 | 9256 ft | 241 kts | 178° |
| 2026-04-29 03:02 | 51.45032 | 1.35293 | 9259 ft | 240 kts | 178° |
| 2026-04-29 03:02 | 51.43385 | 1.35098 | 9256 ft | 240 kts | 178° |
| 2026-04-29 03:03 | 51.41714 | 1.34849 | 9250 ft | 242 kts | 184° |
| 2026-04-29 03:03 | 51.40063 | 1.34120 | 9252 ft | 246 kts | 195° |
| 2026-04-29 03:03 | 51.38474 | 1.33087 | 9254 ft | 247 kts | 197° |
| 2026-04-29 03:03 | 51.36898 | 1.32004 | 9251 ft | 247 kts | 198° |
| 2026-04-29 03:04 | 51.35337 | 1.30818 | 9243 ft | 251 kts | 210° |
| 2026-04-29 03:04 | 51.34239 | 1.28625 | 9230 ft | 257 kts | 250° |
| 2026-04-29 03:04 | 51.34168 | 1.25814 | 9233 ft | 257 kts | 289° |
| 2026-04-29 03:04 | 51.35011 | 1.23302 | 9236 ft | 256 kts | 307° |
| 2026-04-29 03:05 | 51.36037 | 1.20951 | 9104 ft | 259 kts | 308° |
| 2026-04-29 03:05 | 51.37058 | 1.18584 | 8865 ft | 257 kts | 307° |
| 2026-04-29 03:05 | 51.38047 | 1.16203 | 8611 ft | 256 kts | 306° |
| 2026-04-29 03:05 | 51.39015 | 1.13799 | 8351 ft | 256 kts | 305° |
| 2026-04-29 03:06 | 51.39969 | 1.11389 | 8107 ft | 255 kts | 305° |
| 2026-04-29 03:06 | 51.40920 | 1.08961 | 7857 ft | 254 kts | 305° |
| 2026-04-29 03:06 | 51.41870 | 1.06526 | 7610 ft | 253 kts | 305° |
| 2026-04-29 03:06 | 51.42799 | 1.04139 | 7371 ft | 253 kts | 305° |
| 2026-04-29 03:07 | 51.43734 | 1.01733 | 7143 ft | 252 kts | 305° |
| 2026-04-29 03:07 | 51.44676 | 0.99307 | 6920 ft | 252 kts | 305° |
| 2026-04-29 03:07 | 51.45610 | 0.96902 | 6701 ft | 252 kts | 305° |
| 2026-04-29 03:07 | 51.46537 | 0.94516 | 6503 ft | 251 kts | 305° |
| 2026-04-29 03:08 | 51.47370 | 0.92040 | 6335 ft | 253 kts | 291° |
| 2026-04-29 03:08 | 51.47701 | 0.89215 | 6280 ft | 255 kts | 275° |
| 2026-04-29 03:08 | 51.47800 | 0.86338 | 6257 ft | 256 kts | 272° |
| 2026-04-29 03:08 | 51.47866 | 0.83457 | 6244 ft | 255 kts | 273° |
| 2026-04-29 03:09 | 51.47944 | 0.80570 | 6245 ft | 255 kts | 274° |
| 2026-04-29 03:09 | 51.48038 | 0.77692 | 6240 ft | 254 kts | 274° |
| 2026-04-29 03:09 | 51.48140 | 0.74907 | 6232 ft | 246 kts | 274° |
| 2026-04-29 03:09 | 51.48242 | 0.72145 | 6230 ft | 245 kts | 275° |
| 2026-04-29 03:10 | 51.48344 | 0.69435 | 6022 ft | 246 kts | 274° |
| 2026-04-29 03:10 | 51.48445 | 0.66673 | 5766 ft | 244 kts | 274° |
| 2026-04-29 03:10 | 51.48545 | 0.63950 | 5524 ft | 244 kts | 274° |
| 2026-04-29 03:10 | 51.48643 | 0.61216 | 5286 ft | 242 kts | 274° |
| 2026-04-29 03:11 | 51.48741 | 0.58503 | 5049 ft | 239 kts | 274° |
| 2026-04-29 03:11 | 51.48838 | 0.55814 | 4821 ft | 237 kts | 274° |
| 2026-04-29 03:11 | 51.48931 | 0.53186 | 4584 ft | 235 kts | 275° |
| 2026-04-29 03:11 | 51.49025 | 0.50531 | 4281 ft | 236 kts | 275° |
| 2026-04-29 03:12 | 51.49095 | 0.47882 | 4099 ft | 229 kts | 268° |
| 2026-04-29 03:12 | 51.48735 | 0.45489 | 4017 ft | 209 kts | 243° |
| 2026-04-29 03:12 | 51.48069 | 0.43526 | 3984 ft | 190 kts | 234° |
| 2026-04-29 03:12 | 51.47380 | 0.41785 | 3981 ft | 182 kts | 232° |
| 2026-04-29 03:13 | 51.46686 | 0.40050 | 3967 ft | 182 kts | 232° |
| 2026-04-29 03:13 | 51.46011 | 0.38309 | 3774 ft | 182 kts | 233° |
| 2026-04-29 03:13 | 51.45351 | 0.36555 | 3597 ft | 181 kts | 234° |
| 2026-04-29 03:13 | 51.44702 | 0.34801 | 3429 ft | 181 kts | 233° |
| 2026-04-29 03:14 | 51.44067 | 0.33064 | 3262 ft | 181 kts | 233° |
| 2026-04-29 03:14 | 51.43427 | 0.31276 | 3090 ft | 181 kts | 239° |
| 2026-04-29 03:14 | 51.43053 | 0.29359 | 3007 ft | 182 kts | 263° |
| 2026-04-29 03:14 | 51.43028 | 0.27319 | 3008 ft | 182 kts | 275° |
| 2026-04-29 03:15 | 51.43126 | 0.25242 | 3006 ft | 182 kts | 277° |
| 2026-04-29 03:15 | 51.43237 | 0.23185 | 3004 ft | 183 kts | 277° |
| 2026-04-29 03:15 | 51.43334 | 0.21146 | 3008 ft | 183 kts | 276° |
| 2026-04-29 03:15 | 51.43415 | 0.19121 | 3007 ft | 183 kts | 276° |
| 2026-04-29 03:16 | 51.43488 | 0.17047 | 2895 ft | 182 kts | 275° |
| 2026-04-29 03:16 | 51.43556 | 0.15007 | 2739 ft | 181 kts | 275° |
| 2026-04-29 03:16 | 51.43619 | 0.12999 | 2601 ft | 173 kts | 275° |
| 2026-04-29 03:16 | 51.43675 | 0.11134 | 2433 ft | 164 kts | 276° |
| 2026-04-29 03:17 | 51.43735 | 0.09280 | 2310 ft | 164 kts | 276° |
| 2026-04-29 03:17 | 51.43795 | 0.07445 | 2185 ft | 163 kts | 276° |
| 2026-04-29 03:17 | 51.43854 | 0.05605 | 2051 ft | 163 kts | 276° |
| 2026-04-29 03:17 | 51.43913 | 0.03777 | 2026 ft | 163 kts | 276° |
| 2026-04-29 03:18 | 51.43972 | 0.01928 | 2022 ft | 164 kts | 276° |
| 2026-04-29 03:18 | 51.44030 | 0.00097 | 2010 ft | 163 kts | 276° |
| 2026-04-29 03:18 | 51.44087 | -0.01740 | 2007 ft | 163 kts | 276° |
| 2026-04-29 03:18 | 51.44144 | -0.03559 | 2010 ft | 163 kts | 276° |
| 2026-04-29 03:19 | 51.44202 | -0.05393 | 2014 ft | 163 kts | 276° |
| 2026-04-29 03:19 | 51.44259 | -0.07248 | 2005 ft | 163 kts | 277° |
| 2026-04-29 03:19 | 51.44378 | -0.09066 | 1999 ft | 159 kts | 295° |
| 2026-04-29 03:19 | 51.44964 | -0.10469 | 2007 ft | 141 kts | 337° |
| 2026-04-29 03:20 | 51.45801 | -0.11070 | 2020 ft | 127 kts | 2° |
| 2026-04-29 03:20 | 51.46676 | -0.11348 | 2021 ft | 125 kts | 5° |
| 2026-04-29 03:20 | 51.47543 | -0.11611 | 2021 ft | 126 kts | 5° |
| 2026-04-29 03:20 | 51.48410 | -0.11856 | 2019 ft | 121 kts | 15° |
| 2026-04-29 03:21 | 51.49162 | -0.11585 | 2023 ft | 106 kts | 39° |
| 2026-04-29 03:21 | 51.49720 | -0.10864 | 2027 ft | 99 kts | 56° |
| 2026-04-29 03:21 | 51.50174 | -0.10020 | 2030 ft | 99 kts | 57° |
| 2026-04-29 03:21 | 51.50628 | -0.09178 | 2026 ft | 98 kts | 57° |
| 2026-04-29 03:22 | 51.50856 | -0.08202 | 2027 ft | 94 kts | 86° |
| 2026-04-29 03:22 | 51.50876 | -0.07147 | 2022 ft | 94 kts | 86° |
| 2026-04-29 03:22 | 51.50874 | -0.06098 | 2029 ft | 94 kts | 88° |
| 2026-04-29 03:22 | 51.50852 | -0.05035 | 2014 ft | 94 kts | 89° |
| 2026-04-29 03:23 | 51.50811 | -0.03990 | 1897 ft | 95 kts | 90° |
| 2026-04-29 03:23 | 51.50759 | -0.02915 | 1656 ft | 95 kts | 89° |
| 2026-04-29 03:23 | 51.50697 | -0.01838 | 1394 ft | 99 kts | 89° |
| 2026-04-29 03:23 | 51.50672 | -0.00686 | 1173 ft | 103 kts | 88° |
| 2026-04-29 03:24 | 51.50661 | 0.00498 | 880 ft | 108 kts | 87° |
| 2026-04-29 03:24 | 51.50652 | 0.01726 | 598 ft | 112 kts | 87° |
| 2026-04-29 03:24 | 51.50601 | 0.03018 | 317 ft | 117 kts | 89° |
| 2026-04-29 03:24 | 51.50563 | 0.04351 | 70 ft | 122 kts | 89° |
| 2026-04-29 03:25 | 51.50521 | 0.05613 | 27 ft | 68 kts | 93° |
| 2026-04-29 03:25 | 51.50506 | 0.06092 | 27 ft | 38 kts | 93° |
| 2026-04-29 03:25 | 51.50481 | 0.06317 | 27 ft | 12 kts | 144° |
| 2026-04-29 03:25 | 51.50413 | 0.06403 | 27 ft | 13 kts | 103° |
| 2026-04-29 03:26 | 51.50442 | 0.06510 | 27 ft | 10 kts | 47° |
| 2026-04-29 03:26 | 51.50487 | 0.06542 | 27 ft | 5 kts | 315° |
| 2026-04-29 03:26 | 51.50494 | 0.06471 | 27 ft | 7 kts | 269° |
| 2026-04-29 03:26 | 51.50496 | 0.06360 | 27 ft | 14 kts | 271° |
| 2026-04-29 03:27 | 51.50503 | 0.06158 | 27 ft | 21 kts | 275° |
| 2026-04-29 03:27 | 51.50485 | 0.06055 | 27 ft | 3 kts | 179° |
| 2026-04-29 03:27 | 51.50444 | 0.06007 | 27 ft | 10 kts | 223° |
| 2026-04-29 03:27 | 51.50428 | 0.05858 | 27 ft | 17 kts | 274° |
| 2026-04-29 03:28 | 51.50436 | 0.05638 | 27 ft | 19 kts | 272° |
| 2026-04-29 03:28 | 51.50441 | 0.05461 | 27 ft | 7 kts | 272° |
| 2026-04-29 03:28 | 51.50444 | 0.05367 | 27 ft | 9 kts | 273° |
| 2026-04-29 03:28 | 51.50447 | 0.05254 | 27 ft | 11 kts | 273° |
| 2026-04-29 03:29 | 51.50448 | 0.05235 | 27 ft | 0 kts | 273° |
| 2026-04-29 03:29 | 51.50444 | 0.05218 | 27 ft | 2 kts | 223° |
| 2026-04-29 03:29 | 51.50416 | 0.05210 | 27 ft | 3 kts | 181° |
| 2026-04-29 03:30 | 51.50406 | 0.05210 | 27 ft | 2 kts | 180° |
| 2026-04-29 03:30 | 51.50401 | 0.05205 | 27 ft | 1 kts | 233° |
| 2026-04-29 03:30 | 51.50402 | 0.05196 | 27 ft | 1 kts | 307° |
| 2026-04-29 03:30 | 51.50406 | 0.05193 | 27 ft | 0 kts | 340° |
| 2026-04-29 03:31 | 51.50400 | 0.05198 | 27 ft | 1 kts | 319° |
| 2026-04-29 03:31 | 51.50406 | 0.05199 | 27 ft | 0 kts | 342° |
| 2026-04-29 03:31 | 51.50407 | 0.05198 | 27 ft | 0 kts | 335° |
| 2026-04-29 03:32 | 51.50407 | 0.05197 | 27 ft | 0 kts | 328° |
| 2026-04-29 03:32 | 51.50407 | 0.05198 | 27 ft | 1 kts | 327° |